Time;durP1;ratioP1;P1;durP2;ratioP2;P2;SDS_P1;SDS_P2;PMS_P1;PMS_P2;Temp;Humidity;BMP_temperature;BMP_pressure;BME280_temperature;BME280_humidity;BME280_pressure;Samples;Min_cycle;Max_cycle;Signal;HPM_P1;HPM_P2
2023/02/08 00:01:25;;;;;;;10.70;5.00;;;;;;;-8.97;100.00;101966.58;107082;1275;25535;-69
2023/02/08 00:03:54;;;;;;;11.60;4.70;;;;;;;-8.99;100.00;101971.81;106340;1275;1002926;-69
2023/02/08 00:06:22;;;;;;;13.50;5.30;;;;;;;-8.99;100.00;101968.33;107049;1275;24276;-69
2023/02/08 00:08:51;;;;;;;9.90;4.80;;;;;;;-9.00;100.00;101968.67;107013;1275;25513;-71
2023/02/08 00:11:20;;;;;;;13.90;5.20;;;;;;;-9.02;100.00;101972.68;107057;1275;25536;-71
2023/02/08 00:13:48;;;;;;;13.10;5.50;;;;;;;-9.03;100.00;101977.05;106297;1275;1003036;-69
2023/02/08 00:16:18;;;;;;;14.00;5.70;;;;;;;-9.02;100.00;101975.83;106292;1275;1003481;-70
2023/02/08 00:18:48;;;;;;;16.60;5.70;;;;;;;-9.02;100.00;101974.44;107023;1275;25500;-70
2023/02/08 00:21:17;;;;;;;11.70;5.00;;;;;;;-9.03;100.00;101978.45;107042;1275;25642;-69
2023/02/08 00:23:47;;;;;;;14.10;5.10;;;;;;;-9.06;100.00;101984.04;107085;1275;25649;-69
2023/02/08 00:26:16;;;;;;;15.20;5.50;;;;;;;-9.06;100.00;101991.56;107022;1275;25529;-70
2023/02/08 00:28:44;;;;;;;13.10;5.80;;;;;;;-9.08;100.00;101988.77;106320;1275;1003213;-69
2023/02/08 00:31:13;;;;;;;13.40;5.20;;;;;;;-9.09;100.00;101994.17;107074;1275;22585;-69
2023/02/08 00:33:41;;;;;;;15.10;6.50;;;;;;;-9.09;100.00;101996.27;107045;1275;24219;-69
2023/02/08 00:36:10;;;;;;;12.90;5.70;;;;;;;-9.09;100.00;101998.20;107054;1275;25476;-70
2023/02/08 00:38:44;;;;;;;13.80;5.40;;;;;;;-9.12;100.00;101997.15;107021;1275;25541;-69
2023/02/08 00:41:13;;;;;;;9.30;4.80;;;;;;;-9.12;100.00;102000.10;107078;1275;22574;-69
2023/02/08 00:43:44;;;;;;;14.30;5.20;;;;;;;-9.12;100.00;101996.45;106306;1275;1003372;-70
2023/02/08 00:46:13;;;;;;;13.60;5.30;;;;;;;-9.13;100.00;101996.80;106298;1275;1002818;-68
2023/02/08 00:48:42;;;;;;;11.30;4.80;;;;;;;-9.14;100.00;101996.27;106330;1275;1002977;-70
2023/02/08 00:51:12;;;;;;;12.70;5.30;;;;;;;-9.16;100.00;101992.77;107031;1275;24279;-70
2023/02/08 00:53:43;;;;;;;18.40;5.90;;;;;;;-9.18;100.00;101996.09;106342;1275;1003297;-68
2023/02/08 00:56:13;;;;;;;15.90;5.90;;;;;;;-9.19;100.00;102000.10;107027;1275;22576;-69
2023/02/08 00:58:43;;;;;;;15.10;5.40;;;;;;;-9.22;100.00;102005.52;106287;1275;1002813;-71
2023/02/08 01:01:12;;;;;;;12.40;5.00;;;;;;;-9.25;100.00;102011.98;106310;1275;1003763;-70
2023/02/08 01:03:41;;;;;;;13.30;5.80;;;;;;;-9.26;100.00;102010.74;106326;1275;1003183;-69
2023/02/08 01:06:15;;;;;;;13.80;5.70;;;;;;;-9.27;100.00;102009.34;107042;1275;25545;-70
2023/02/08 01:08:45;;;;;;;10.10;5.20;;;;;;;-9.29;100.00;102011.09;107009;1275;22660;-69
2023/02/08 01:11:21;;;;;;;14.40;5.10;;;;;;;-9.31;100.00;102015.63;106310;1275;1003069;-69
2023/02/08 01:13:53;;;;;;;10.80;5.30;;;;;;;-9.34;100.00;102015.11;107030;1275;22563;-69
2023/02/08 01:16:24;;;;;;;14.80;5.70;;;;;;;-9.36;100.00;102010.55;106326;1275;1002488;-70
2023/02/08 01:18:54;;;;;;;12.20;5.60;;;;;;;-9.38;100.00;102013.52;107046;1275;26849;-69
2023/02/08 01:21:27;;;;;;;14.70;5.40;;;;;;;-9.37;100.00;102012.98;106336;1275;1003722;-69
2023/02/08 01:23:56;;;;;;;13.90;5.40;;;;;;;-9.37;100.00;102015.61;107061;1275;22568;-69
2023/02/08 01:26:24;;;;;;;14.60;5.60;;;;;;;-9.37;100.00;102016.48;106350;1275;1003529;-69
2023/02/08 01:28:53;;;;;;;11.60;5.60;;;;;;;-9.35;100.00;102016.31;106312;1275;1015937;-69
2023/02/08 01:31:25;;;;;;;13.70;5.80;;;;;;;-9.33;100.00;102018.06;107064;1275;23494;-69
2023/02/08 01:33:54;;;;;;;13.70;5.40;;;;;;;-9.32;100.00;102016.32;106328;1275;1003062;-69
2023/02/08 01:36:23;;;;;;;13.60;6.30;;;;;;;-9.35;100.00;102016.32;107038;1275;25468;-69
2023/02/08 01:38:52;;;;;;;12.30;6.50;;;;;;;-9.37;100.00;102015.25;106380;1275;1003171;-69
2023/02/08 01:41:43;;;;;;;14.70;6.70;;;;;;;-9.38;100.00;102014.56;106873;1275;25481;-70
2023/02/08 01:44:16;;;;;;;14.70;6.50;;;;;;;-9.39;100.00;102023.81;107036;1275;25604;-69
2023/02/08 01:46:47;;;;;;;19.70;7.50;;;;;;;-9.38;100.00;102022.08;107046;1275;25582;-71
2023/02/08 01:49:27;;;;;;;20.40;7.40;;;;;;;-9.40;100.00;102025.39;107092;1275;22763;-69
2023/02/08 01:52:09;;;;;;;18.70;8.00;;;;;;;-9.42;100.00;102032.71;106270;1275;1003052;-69
2023/02/08 01:54:42;;;;;;;18.50;7.40;;;;;;;-9.42;100.00;102037.60;107035;1275;25406;-69
2023/02/08 01:57:10;;;;;;;19.10;6.70;;;;;;;-9.41;100.00;102040.23;107048;1275;22524;-69
2023/02/08 02:00:21;;;;;;;18.70;7.00;;;;;;;-9.43;100.00;102040.58;107055;1275;25701;-69
2023/02/08 02:02:52;;;;;;;18.50;7.30;;;;;;;-9.48;100.00;102051.73;106309;1275;1002861;-69
2023/02/08 02:05:21;;;;;;;14.50;6.50;;;;;;;-9.52;100.00;102057.48;107066;1275;22626;-69
2023/02/08 02:07:51;;;;;;;20.00;7.50;;;;;;;-9.54;100.00;102059.56;107068;1275;26772;-70
2023/02/08 02:10:34;;;;;;;16.50;7.80;;;;;;;-9.57;100.00;102064.27;106289;1275;1003051;-69
2023/02/08 02:13:12;;;;;;;16.10;7.30;;;;;;;-9.59;100.00;102068.96;107085;1275;22530;-70
2023/02/08 02:15:43;;;;;;;18.80;7.90;;;;;;;-9.60;100.00;102070.55;106356;1275;1003083;-69
2023/02/08 02:18:16;;;;;;;17.00;7.30;;;;;;;-9.62;100.00;102076.47;107060;1263;25526;-69
2023/02/08 02:20:54;;;;;;;16.60;6.20;;;;;;;-9.64;100.00;102079.08;106800;1275;365445;-69
2023/02/08 02:23:32;;;;;;;15.80;7.10;;;;;;;-9.66;100.00;102079.23;106317;1275;1002876;-69
2023/02/08 02:26:23;;;;;;;16.80;7.00;;;;;;;-9.67;100.00;102082.54;106333;1275;1003414;-68
2023/02/08 02:29:04;;;;;;;17.80;7.70;;;;;;;-9.69;100.00;102091.10;106321;1275;1003730;-68
2023/02/08 02:32:01;;;;;;;15.60;7.00;;;;;;;-9.73;100.00;102093.70;106322;1275;1002922;-69
2023/02/08 02:34:46;;;;;;;18.40;7.60;;;;;;;-9.80;100.00;102104.48;107049;1275;25731;-72
2023/02/08 02:37:52;;;;;;;16.90;7.10;;;;;;;-9.86;100.00;102115.61;107073;1275;22661;-70
2023/02/08 02:40:56;;;;;;;14.30;6.00;;;;;;;-9.92;100.00;102119.24;106223;1275;1003276;-69
2023/02/08 02:43:41;;;;;;;18.20;7.00;;;;;;;-9.94;100.00;102126.91;107013;1275;25536;-69
2023/02/08 02:46:18;;;;;;;17.60;7.30;;;;;;;-9.96;100.00;102126.90;107042;1275;22600;-69
2023/02/08 02:49:06;;;;;;;21.50;8.30;;;;;;;-9.96;100.00;102126.55;107041;1275;25636;-69
2023/02/08 02:52:01;;;;;;;15.30;7.30;;;;;;;-9.97;100.00;102131.44;106334;1275;1002971;-69
2023/02/08 02:54:33;;;;;;;15.70;6.90;;;;;;;-9.98;100.00;102135.78;107050;1275;25522;-69
2023/02/08 02:57:06;;;;;;;17.00;6.80;;;;;;;-9.99;100.00;102138.73;106325;1275;1003171;-69
2023/02/08 02:59:36;;;;;;;15.60;7.30;;;;;;;-10.03;100.00;102144.65;106292;1275;1002989;-69
2023/02/08 03:02:04;;;;;;;18.80;7.10;;;;;;;-10.07;100.00;102147.75;107058;1275;25494;-69
2023/02/08 03:04:33;;;;;;;17.40;6.60;;;;;;;-10.11;100.00;102149.48;107053;1275;26802;-69
2023/02/08 03:07:17;;;;;;;17.60;7.20;;;;;;;-10.15;100.00;102151.19;107053;1275;26766;-70
2023/02/08 03:10:12;;;;;;;14.50;6.30;;;;;;;-10.17;100.00;102152.38;107088;1275;22730;-69
2023/02/08 03:12:47;;;;;;;13.50;6.40;;;;;;;-10.18;100.00;102154.48;107084;1275;25549;-69
2023/02/08 03:16:05;;;;;;;20.00;8.20;;;;;;;-10.17;100.00;102152.22;106346;1275;1002636;-69
2023/02/08 03:19:01;;;;;;;17.50;7.20;;;;;;;-10.15;100.00;102155.72;106306;1275;1002838;-69
2023/02/08 03:21:50;;;;;;;18.70;7.50;;;;;;;-10.15;100.00;102153.98;106334;1275;1003272;-69
2023/02/08 03:24:34;;;;;;;16.10;6.80;;;;;;;-10.16;100.00;102147.52;107054;1275;25699;-70
2023/02/08 03:27:08;;;;;;;19.50;7.80;;;;;;;-10.17;100.00;102141.92;106348;1275;1002936;-71
2023/02/08 03:29:53;;;;;;;17.50;7.30;;;;;;;-10.19;100.00;102144.70;107064;1275;26919;-69
2023/02/08 03:32:39;;;;;;;17.70;6.90;;;;;;;-10.22;100.00;102143.27;107047;1275;25571;-70
2023/02/08 03:35:18;;;;;;;18.80;7.40;;;;;;;-10.23;100.00;102146.05;106309;1275;1002850;-69
2023/02/08 03:37:53;;;;;;;16.40;7.40;;;;;;;-10.24;100.00;102146.05;107047;1275;25535;-69
2023/02/08 03:40:36;;;;;;;15.10;7.10;;;;;;;-10.24;100.00;102148.48;106335;1275;1003653;-69
2023/02/08 03:43:17;;;;;;;19.20;8.50;;;;;;;-10.25;100.00;102149.86;106364;1275;1003483;-69
2023/02/08 03:45:49;;;;;;;18.70;7.20;;;;;;;-10.28;100.00;102159.45;107067;1275;24411;-70
2023/02/08 03:48:18;;;;;;;20.30;8.10;;;;;;;-10.29;100.00;102164.14;107047;1275;25382;-69
2023/02/08 03:50:49;;;;;;;20.60;7.30;;;;;;;-10.31;100.00;102164.14;106317;1275;1003774;-69
2023/02/08 03:53:19;;;;;;;16.50;7.50;;;;;;;-10.33;100.00;102172.86;107075;1275;22666;-69
2023/02/08 03:55:58;;;;;;;17.00;7.40;;;;;;;-10.35;100.00;102177.56;106359;1275;1003091;-69
2023/02/08 03:58:30;;;;;;;14.30;6.30;;;;;;;-10.37;100.00;102176.84;106348;1275;1003636;-69
2023/02/08 04:01:06;;;;;;;16.00;6.80;;;;;;;-10.39;100.00;102177.01;107020;1275;25348;-68
2023/02/08 04:03:35;;;;;;;22.10;9.40;;;;;;;-10.42;100.00;102177.15;107109;1275;23103;-70
2023/02/08 04:06:03;;;;;;;17.90;7.90;;;;;;;-10.44;100.00;102179.57;106143;1275;1003055;-69
2023/02/08 04:08:32;;;;;;;16.20;7.10;;;;;;;-10.45;100.00;102174.66;107003;1275;25593;-69
2023/02/08 04:11:01;;;;;;;17.60;7.10;;;;;;;-10.46;100.00;102170.64;106292;1275;1003364;-69
2023/02/08 04:13:30;;;;;;;19.80;7.50;;;;;;;-10.47;100.00;102168.89;107043;1275;25540;-72
2023/02/08 04:15:59;;;;;;;19.50;7.30;;;;;;;-10.48;100.00;102175.35;106267;1264;1016142;-69
2023/02/08 04:18:28;;;;;;;17.40;6.90;;;;;;;-10.49;100.00;102173.23;106334;1275;1002835;-69
2023/02/08 04:20:56;;;;;;;20.10;7.60;;;;;;;-10.53;100.00;102175.30;107024;1275;25743;-69
2023/02/08 04:23:25;;;;;;;13.10;6.00;;;;;;;-10.55;100.00;102177.37;106303;1275;1003613;-70
2023/02/08 04:25:53;;;;;;;17.70;7.00;;;;;;;-10.57;100.00;102186.76;107062;1275;26741;-69
2023/02/08 04:28:21;;;;;;;17.40;6.70;;;;;;;-10.59;100.00;102195.80;106276;1275;1003283;-69
2023/02/08 04:30:50;;;;;;;20.50;8.00;;;;;;;-10.59;100.00;102194.40;107035;1275;25765;-69
2023/02/08 04:33:18;;;;;;;19.50;7.60;;;;;;;-10.59;100.00;102202.42;106304;1275;1003805;-69
2023/02/08 04:35:47;;;;;;;17.90;7.40;;;;;;;-10.61;100.00;102203.11;106871;1275;22665;-68
2023/02/08 04:38:15;;;;;;;25.00;9.00;;;;;;;-10.62;100.00;102202.04;106270;1275;1002987;-68
2023/02/08 04:40:44;;;;;;;21.30;7.80;;;;;;;-10.64;100.00;102207.95;107052;1275;25598;-69
2023/02/08 04:43:12;;;;;;;21.20;8.10;;;;;;;-10.63;100.00;102215.29;106298;1275;1003277;-69
2023/02/08 04:45:41;;;;;;;25.60;9.10;;;;;;;-10.63;100.00;102218.23;107000;1275;25872;-69
2023/02/08 04:48:09;;;;;;;23.50;8.60;;;;;;;-10.63;100.00;102218.95;106281;1275;1002826;-69
2023/02/08 04:50:39;;;;;;;22.50;7.60;;;;;;;-10.65;100.00;102221.20;107033;1253;26876;-70
2023/02/08 04:53:08;;;;;;;20.30;8.40;;;;;;;-10.66;100.00;102229.37;107036;1275;26767;-71
2023/02/08 04:55:37;;;;;;;20.70;7.90;;;;;;;-10.67;100.00;102231.98;106323;1275;1002942;-70
2023/02/08 04:58:08;;;;;;;18.50;7.70;;;;;;;-10.67;100.00;102236.52;107059;1275;25521;-69
2023/02/08 05:00:36;;;;;;;24.30;9.30;;;;;;;-10.67;100.00;102239.11;106276;1275;1003320;-71
2023/02/08 05:03:05;;;;;;;20.60;7.80;;;;;;;-10.68;100.00;102246.61;106127;1275;1003596;-70
2023/02/08 05:05:34;;;;;;;23.30;10.00;;;;;;;-10.69;100.00;102251.64;106187;1275;1003288;-71
2023/02/08 05:08:03;;;;;;;20.40;9.80;;;;;;;-10.71;100.00;102253.90;106937;1275;25673;-71
2023/02/08 05:10:32;;;;;;;18.50;8.00;;;;;;;-10.71;100.00;102254.95;107013;1275;22583;-69
2023/02/08 05:13:01;;;;;;;20.00;8.00;;;;;;;-10.71;100.00;102255.98;107089;1275;25532;-68
2023/02/08 05:15:30;;;;;;;21.40;8.30;;;;;;;-10.73;100.00;102257.19;106290;1275;1004083;-68
2023/02/08 05:17:59;;;;;;;22.90;9.80;;;;;;;-10.74;100.00;102262.21;107029;1275;25565;-68
2023/02/08 05:20:29;;;;;;;23.70;10.00;;;;;;;-10.74;100.00;102260.84;106963;1275;25454;-71
2023/02/08 05:22:58;;;;;;;20.40;8.80;;;;;;;-10.73;100.00;102265.37;107033;1275;22588;-69
2023/02/08 05:25:27;;;;;;;20.00;8.90;;;;;;;-10.72;100.00;102272.52;106339;1275;1003345;-68
2023/02/08 05:27:55;;;;;;;20.70;8.50;;;;;;;-10.72;100.00;102275.65;107047;1275;25587;-70
2023/02/08 05:30:24;;;;;;;22.10;8.90;;;;;;;-10.71;100.00;102277.94;106285;1275;1005740;-68
2023/02/08 05:32:52;;;;;;;23.80;9.70;;;;;;;-10.67;100.00;102276.94;107028;1275;25801;-69
2023/02/08 05:35:21;;;;;;;17.70;7.80;;;;;;;-10.66;100.00;102270.15;106251;1275;1003492;-68
2023/02/08 05:37:49;;;;;;;21.60;8.40;;;;;;;-10.68;100.00;102266.14;106325;1275;1003035;-69
2023/02/08 05:40:18;;;;;;;25.60;10.20;;;;;;;-10.68;100.00;102265.27;107079;1275;25527;-70
2023/02/08 05:42:46;;;;;;;29.60;11.80;;;;;;;-10.65;100.00;102265.11;107045;1270;25674;-71
2023/02/08 05:45:15;;;;;;;26.30;11.20;;;;;;;-10.58;100.00;102263.11;107071;1275;25693;-72
2023/02/08 05:47:46;;;;;;;29.40;11.10;;;;;;;-10.47;100.00;102265.14;106300;1275;1003106;-69
2023/02/08 05:50:14;;;;;;;33.00;12.20;;;;;;;-10.36;100.00;102267.36;107048;1275;25499;-70
2023/02/08 05:52:43;;;;;;;24.70;10.80;;;;;;;-10.22;100.00;102254.57;106272;1275;1015851;-69
2023/02/08 05:55:12;;;;;;;26.00;10.30;;;;;;;-10.08;100.00;102256.61;107006;1275;24250;-69
2023/02/08 05:57:40;;;;;;;22.00;9.20;;;;;;;-10.01;100.00;102251.80;106998;1275;24228;-69
2023/02/08 06:00:09;;;;;;;27.80;9.40;;;;;;;-9.94;100.00;102241.73;106894;1275;22635;-68
2023/02/08 06:02:43;;;;;;;32.70;12.70;;;;;;;-9.89;100.00;102241.25;106302;1275;1002974;-68
2023/02/08 06:05:11;;;;;;;28.60;10.20;;;;;;;-9.82;100.00;102242.70;106333;1275;1003480;-70
2023/02/08 06:07:40;;;;;;;34.20;12.20;;;;;;;-9.77;100.00;102246.75;107090;1275;25493;-67
2023/02/08 06:10:08;;;;;;;28.10;10.20;;;;;;;-9.74;100.00;102248.18;106299;1271;1003750;-69
2023/02/08 06:12:39;;;;;;;31.20;11.40;;;;;;;-9.72;100.00;102256.73;107081;1270;25533;-70
2023/02/08 06:15:08;;;;;;;19.40;9.00;;;;;;;-9.68;100.00;102258.52;106989;1272;25606;-70
2023/02/08 06:17:37;;;;;;;43.00;14.10;;;;;;;-9.65;100.00;102263.60;106269;1253;1002944;-69
2023/02/08 06:20:06;;;;;;;27.10;9.90;;;;;;;-9.62;100.00;102269.05;106998;1269;25519;-68
2023/02/08 06:22:35;;;;;;;30.90;12.00;;;;;;;-9.54;100.00;102274.35;106247;1270;1003085;-69
2023/02/08 06:25:04;;;;;;;58.80;21.80;;;;;;;-9.47;100.00;102275.61;106914;1268;25579;-69
2023/02/08 06:27:33;;;;;;;46.40;16.10;;;;;;;-9.42;100.00;102274.95;106212;1275;1003765;-67
2023/02/08 06:30:01;;;;;;;33.10;14.20;;;;;;;-9.35;100.00;102277.09;106966;1269;23039;-70
2023/02/08 06:32:31;;;;;;;36.20;13.50;;;;;;;-9.28;100.00;102281.50;107090;1275;25519;-71
2023/02/08 06:34:59;;;;;;;28.40;11.20;;;;;;;-9.20;100.00;102283.48;107066;1270;22567;-70
2023/02/08 06:37:28;;;;;;;22.40;9.90;;;;;;;-9.13;100.00;102287.37;106937;1269;25599;-69
2023/02/08 06:39:57;;;;;;;19.80;8.80;;;;;;;-9.06;100.00;102295.11;106295;1270;1003005;-69
2023/02/08 06:42:27;;;;;;;36.60;13.80;;;;;;;-9.00;100.00;102296.71;106417;1267;1003421;-70
2023/02/08 06:58:17;;;;;;;40.40;21.50;;;;;;;-8.25;100.00;102306.05;104757;1296;558525;-76
2023/02/08 07:00:46;;;;;;;32.80;16.80;;;;;;;-7.98;100.00;102316.98;105828;1285;209863;-75
2023/02/08 07:03:16;;;;;;;34.40;12.50;;;;;;;-7.88;100.00;102315.95;105515;1285;1003760;-77
2023/02/08 07:05:46;;;;;;;29.40;12.50;;;;;;;-7.82;100.00;102321.75;106275;1285;25478;-78
2023/02/08 07:08:33;;;;;;;23.00;9.30;;;;;;;-7.76;100.00;102327.71;106284;1281;25642;-78
2023/02/08 07:11:10;;;;;;;21.30;9.00;;;;;;;-7.66;100.00;102327.91;106238;1287;25791;-77
2023/02/08 07:13:40;;;;;;;25.90;10.30;;;;;;;-7.53;100.00;102332.11;106191;1280;25463;-78
2023/02/08 07:16:09;;;;;;;24.10;9.90;;;;;;;-7.44;100.00;102330.88;105572;1287;1003174;-79
2023/02/08 07:18:38;;;;;;;27.20;12.80;;;;;;;-7.29;100.00;102333.34;106311;1285;27255;-74
2023/02/08 07:21:07;;;;;;;28.30;12.70;;;;;;;-7.16;100.00;102329.81;105464;1287;1003423;-75
2023/02/08 07:23:37;;;;;;;30.00;11.20;;;;;;;-7.03;100.00;102330.16;107089;1276;25470;-74
2023/02/08 07:26:07;;;;;;;25.20;11.80;;;;;;;-6.91;100.00;102335.39;106964;1276;22541;-76
2023/02/08 07:28:36;;;;;;;29.90;11.10;;;;;;;-6.79;100.00;102332.37;106931;1269;22539;-75
2023/02/08 07:31:10;;;;;;;24.00;9.60;;;;;;;-6.63;100.00;102335.30;106876;1276;22482;-74
2023/02/08 07:33:39;;;;;;;20.10;8.30;;;;;;;-6.49;100.00;102330.70;106960;1269;25923;-74
2023/02/08 07:36:10;;;;;;;22.10;8.80;;;;;;;-6.44;100.00;102336.81;106992;1276;22530;-77
2023/02/08 07:38:39;;;;;;;18.70;7.90;;;;;;;-6.39;100.00;102336.45;106961;1269;26887;-75
2023/02/08 07:41:10;;;;;;;25.20;8.50;;;;;;;-6.29;100.00;102326.22;106838;1275;25509;-75
2023/02/08 07:43:40;;;;;;;17.90;7.50;;;;;;;-6.22;100.00;102327.58;106762;1276;25469;-73
2023/02/08 07:46:17;;;;;;;20.70;8.20;;;;;;;-6.15;100.00;102331.05;106723;1276;25385;-72
2023/02/08 07:48:48;;;;;;;26.20;8.40;;;;;;;-6.07;100.00;102334.36;106810;1276;25385;-72
2023/02/08 07:51:16;;;;;;;20.00;8.50;;;;;;;-6.02;100.00;102344.34;106802;1276;25310;-71
2023/02/08 07:53:45;;;;;;;21.10;8.50;;;;;;;-5.86;100.00;102346.15;107280;1276;25304;-72
2023/02/08 07:56:14;;;;;;;24.60;8.70;;;;;;;-5.69;100.00;102344.98;107019;1276;25252;-71
2023/02/08 07:58:42;;;;;;;23.90;10.80;;;;;;;-5.46;100.00;102338.48;106781;1276;26834;-72
2023/02/08 08:01:11;;;;;;;24.40;9.90;;;;;;;-5.25;100.00;102337.25;106763;1276;25454;-72
2023/02/08 08:03:50;;;;;;;20.00;7.90;;;;;;;-5.09;100.00;102334.99;107251;1272;25539;-74
2023/02/08 08:06:19;;;;;;;23.10;9.30;;;;;;;-5.05;100.00;102339.70;106810;1276;22574;-72
2023/02/08 08:08:49;;;;;;;22.70;9.30;;;;;;;-4.99;100.00;102346.51;107041;1276;25430;-72
2023/02/08 08:11:18;;;;;;;23.00;8.50;;;;;;;-4.92;100.00;102351.01;106198;1269;1003148;-73
2023/02/08 08:13:48;;;;;;;24.30;8.00;;;;;;;-4.93;100.00;102361.75;106227;1273;1002664;-72
2023/02/08 08:16:17;;;;;;;19.10;8.50;;;;;;;-4.95;100.00;102369.87;106435;1269;1002993;-72
2023/02/08 08:18:47;;;;;;;20.50;7.80;;;;;;;-4.91;100.00;102377.39;106130;1272;1003474;-74
2023/02/08 09:06:13;;;;;;;25.00;8.60;;;;;;;-4.29;100.00;102504.60;103599;1303;1003048;-66
2023/02/08 09:08:41;;;;;;;21.90;8.20;;;;;;;-4.13;100.00;102395.38;105286;1285;1003650;-64
2023/02/08 09:11:10;;;;;;;19.60;8.50;;;;;;;-3.95;100.00;102387.73;105248;1288;1003723;-65
2023/02/08 09:13:39;;;;;;;21.50;7.80;;;;;;;-3.76;100.00;102380.06;105273;1285;1003243;-68
2023/02/08 09:16:15;;;;;;;25.70;8.80;;;;;;;-3.65;100.00;102377.62;105080;1283;1003453;-67
2023/02/08 09:18:43;;;;;;;36.20;10.70;;;;;;;-3.52;100.00;102378.14;105925;1282;223710;-66
2023/02/08 09:21:18;;;;;;;26.60;9.50;;;;;;;-3.36;100.00;102375.24;106094;1282;1003064;-66
2023/02/08 09:23:47;;;;;;;20.90;7.60;;;;;;;-3.10;100.00;102361.75;105371;1283;1002888;-72
2023/02/08 09:26:16;;;;;;;34.70;11.20;;;;;;;-2.87;100.00;102356.06;106222;1279;25501;-72
2023/02/08 09:28:44;;;;;;;20.20;7.80;;;;;;;-2.73;100.00;102353.33;105482;1279;1003025;-73
2023/02/08 09:31:24;;;;;;;20.90;8.00;;;;;;;-2.60;100.00;102355.20;105340;1279;1003064;-73
2023/02/08 09:33:54;;;;;;;19.00;6.90;;;;;;;-2.53;100.00;102360.54;107355;1285;22573;-74
2023/02/08 09:36:22;;;;;;;18.60;7.40;;;;;;;-2.61;100.00;102377.11;106007;1282;1003302;-73
2023/02/08 09:38:50;;;;;;;18.00;7.30;;;;;;;-2.63;100.00;102386.88;108778;1279;1002346;-72
2023/02/08 09:41:24;;;;;;;15.90;6.80;;;;;;;-2.63;100.00;102387.04;109272;1279;22817;-73
2023/02/08 09:44:09;;;;;;;27.30;8.70;;;;;;;-2.63;100.00;102393.58;109413;1279;22536;-74
2023/02/08 09:46:40;;;;;;;21.60;7.90;;;;;;;-2.43;100.00;102375.88;108652;1271;25497;-72
2023/02/08 09:49:15;;;;;;;22.50;8.70;;;;;;;-2.20;100.00;102364.29;105949;1279;1003417;-72
2023/02/08 09:52:05;;;;;;;20.90;9.10;;;;;;;-2.05;100.00;102362.74;107025;1279;25975;-75
2023/02/08 09:54:36;;;;;;;23.60;10.70;;;;;;;-1.91;100.00;102364.38;106573;1273;25316;-77
2023/02/08 09:57:12;;;;;;;27.80;11.30;;;;;;;-1.82;100.00;102366.30;105803;1272;1003049;-71
2023/02/08 09:59:39;;;;;;;18.20;7.60;;;;;;;-1.66;100.00;102361.52;105866;1279;1003212;-74
2023/02/08 10:02:18;;;;;;;22.60;8.50;;;;;;;-1.61;100.00;102375.18;106321;1279;1002540;-75
2023/02/08 10:04:47;;;;;;;15.40;7.10;;;;;;;-1.66;100.00;102379.56;106710;1272;1003189;-76
2023/02/08 10:07:15;;;;;;;20.60;6.80;;;;;;;-1.77;100.00;102390.57;106929;1280;1003840;-76
2023/02/08 10:09:42;;;;;;;24.90;9.40;;;;;;;-1.85;100.00;102398.02;107255;1280;22578;-73
2023/02/08 10:19:22;;;;;;;21.00;6.90;;;;;;;-1.49;100.00;102443.92;104689;1296;558181;-72
2023/02/08 10:22:09;;;;;;;14.00;6.60;;;;;;;-1.51;100.00;102384.52;105766;1282;1003070;-76
2023/02/08 10:24:46;;;;;;;19.10;7.50;;;;;;;-1.58;100.00;102387.85;106118;1283;1002593;-76
2023/02/08 10:27:16;;;;;;;18.50;7.00;;;;;;;-1.39;100.00;102373.42;106097;1282;1003214;-76
2023/02/08 10:30:02;;;;;;;16.00;6.20;;;;;;;-1.33;100.00;102378.08;106719;1285;22528;-71
2023/02/08 10:32:57;;;;;;;17.60;6.50;;;;;;;-1.32;100.00;102378.58;105935;1282;360579;-70
2023/02/08 10:35:35;;;;;;;17.20;8.40;;;;;;;-1.33;100.00;102380.36;106397;1283;25482;-70
2023/02/08 10:38:30;;;;;;;14.50;6.90;;;;;;;-1.37;100.00;102382.95;105594;1279;1003354;-69
2023/02/08 10:41:16;;;;;;;28.00;14.20;;;;;;;-1.33;100.00;102380.90;106790;1272;22546;-70
2023/02/08 10:43:54;;;;;;;35.60;18.20;;;;;;;-1.18;100.00;102371.15;106219;1272;1003160;-69
2023/02/08 10:46:26;;;;;;;25.40;12.90;;;;;;;-0.96;100.00;102358.39;106951;1270;24223;-70
2023/02/08 10:49:03;;;;;;;19.00;9.20;;;;;;;-0.79;100.00;102347.13;106421;1267;1002873;-69
2023/02/08 10:51:30;;;;;;;18.80;8.40;;;;;;;-0.65;100.00;102336.66;106538;1266;1003260;-70
2023/02/08 10:53:57;;;;;;;31.80;13.60;;;;;;;-0.53;100.00;102337.93;107165;1266;24251;-69
2023/02/08 10:56:36;;;;;;;37.10;17.90;;;;;;;-0.38;100.00;102335.18;107344;1266;25961;-69
2023/02/08 10:59:15;;;;;;;29.10;12.20;;;;;;;-0.25;100.00;102331.42;106790;1270;1003562;-75
2023/02/08 11:01:45;;;;;;;26.80;12.10;;;;;;;-0.09;100.00;102321.20;108623;1266;1003718;-75
2023/02/08 11:04:13;;;;;;;30.40;13.20;;;;;;;0.08;100.00;102316.27;108801;1273;1003272;-74
2023/02/08 11:06:42;;;;;;;23.40;11.00;;;;;;;0.24;100.00;102304.73;109664;1266;22786;-76
2023/02/08 11:09:28;;;;;;;24.50;10.80;;;;;;;0.34;100.00;102306.55;108949;1267;22472;-69
2023/02/08 11:12:00;;;;;;;32.70;15.50;;;;;;;0.43;100.00;102302.19;107821;1269;1003755;-78
2023/02/08 11:14:39;;;;;;;29.30;14.30;;;;;;;0.50;100.00;102302.31;107544;1273;1003088;-75
2023/02/08 11:17:27;;;;;;;29.70;14.90;;;;;;;0.46;100.00;102307.42;109043;1267;22555;-77
2023/02/08 11:19:56;;;;;;;26.30;13.20;;;;;;;0.38;100.00;102308.73;107890;1272;25523;-71
2023/02/08 11:22:24;;;;;;;22.50;9.80;;;;;;;0.30;100.00;102309.73;106954;1267;22630;-67
2023/02/08 11:25:00;;;;;;;30.20;12.10;;;;;;;0.17;100.00;102311.02;107004;1272;25347;-67
2023/02/08 11:27:31;;;;;;;26.70;14.50;;;;;;;0.13;100.00;102313.09;107125;1270;22536;-68
2023/02/08 11:30:21;;;;;;;26.20;11.30;;;;;;;0.20;100.00;102301.17;107433;1274;22518;-70
2023/02/08 11:33:18;;;;;;;27.00;10.80;;;;;;;0.24;100.00;102285.76;107249;1269;24209;-67
2023/02/08 11:35:56;;;;;;;20.10;9.50;;;;;;;0.11;100.00;102283.20;106589;1273;1003366;-74
2023/02/08 11:38:27;;;;;;;28.10;12.70;;;;;;;-0.14;100.00;102285.55;108351;1267;22516;-69
2023/02/08 11:40:56;;;;;;;37.20;18.10;;;;;;;-0.28;100.00;102283.84;107212;1267;23096;-69
2023/02/08 11:43:34;;;;;;;36.40;16.10;;;;;;;-0.26;100.00;102283.23;107949;1275;25422;-74
2023/02/08 11:46:02;;;;;;;35.20;18.80;;;;;;;-0.15;100.00;102276.55;108279;1273;22644;-75
2023/02/08 11:48:32;;;;;;;28.10;12.90;;;;;;;-0.02;100.00;102269.23;107491;1275;1002705;-75
2023/02/08 11:51:01;;;;;;;32.80;14.30;;;;;;;0.04;100.00;102267.06;108190;1267;25443;-76
2023/02/08 11:53:32;;;;;;;24.50;10.60;;;;;;;0.06;100.00;102271.47;107345;1270;1003388;-76
2023/02/08 11:56:06;;;;;;;34.50;16.10;;;;;;;-0.06;100.00;102276.79;107381;1271;1002890;-78
2023/02/08 11:58:35;;;;;;;30.00;14.50;;;;;;;-0.21;100.00;102284.17;108080;1273;23276;-76
2023/02/08 12:01:21;;;;;;;31.10;14.80;;;;;;;-0.26;100.00;102280.23;108038;1269;26500;-77
2023/02/08 12:03:50;;;;;;;34.70;14.20;;;;;;;-0.28;100.00;102281.19;108013;1275;22556;-76
2023/02/08 12:06:26;;;;;;;25.70;12.00;;;;;;;-0.30;100.00;102281.98;108180;1275;22482;-76
2023/02/08 12:09:03;;;;;;;41.20;16.40;;;;;;;-0.21;100.00;102282.04;108410;1270;25440;-80
2023/02/08 12:12:09;;;;;;;28.60;12.60;;;;;;;-0.08;100.00;102270.11;108100;1266;22890;-76
2023/02/08 12:15:02;;;;;;;32.20;11.00;;;;;;;-0.03;100.00;102269.59;107583;1267;1003342;-75
2023/02/08 12:17:45;;;;;;;19.20;8.30;;;;;;;-0.10;100.00;102277.44;108167;1274;25677;-76
2023/02/08 12:20:31;;;;;;;24.80;10.20;;;;;;;-0.34;100.00;102292.35;107537;1274;1002521;-77
2023/02/08 12:23:08;;;;;;;27.00;9.80;;;;;;;-0.45;100.00;102292.48;108107;1274;22536;-77
2023/02/08 12:25:43;;;;;;;19.80;7.90;;;;;;;-0.42;100.00;102283.71;108498;1274;22527;-74